SUCCESS DAM (SCC)

Elevation: 692' · TULE R basin · Operator: US Army Corps of Engineers

Provisional data, subject to change.
Query executed Tuesday at 10:44:51   clock

Select a sensor type for a plot of data.
Note: Reservoir Flows are daily averages.

Earlier

Date RES ELE    STORAGE    RES CHG    TOC STO    ABV TOC    OUTFLOW    INFLOW    FNF    PPT INC    PPTINC4    TEMP MN    TEMP MX    WINDLEN    EVP PAN   
 FEET   AF   AF   AF   AF   CFS   CFS   CFS   INCHES   INCHES   DEG F   DEG F   MILES   INCHES  
07/05/2015 588.80 7247 -25 82300 -75053 9 0 0 0.00 0.00 23 38 73 0.34
07/06/2015 588.75 7227 -20 82300 -75073 6 0 0 0.00 0.00 21 36 76 0.32
07/07/2015 588.69 7202 -25 82300 -75098 7 -2 -2 0.00 0.00 20 35 76 0.32
07/08/2015 588.63 7178 -24 82300 -75122 8 -0 0 0.00 0.00 19 34 96 0.32
07/09/2015 588.55 7146 -32 82300 -75154 9 -3 -3 0.00 0.00 18 29 93 0.29
07/10/2015 588.48 7118 -28 82300 -75182 10 -1 -1 0.00 0.00 17 31 75 0.29
07/11/2015 588.43 7098 -20 82300 -75202 7 0 0 0.00 -- 18 33 77 0.30
07/12/2015 588.37 7074 -24 82300 -75226 8 -0 0 0.00 0.00 19 34 70 0.31
07/13/2015 588.23 7018 -56 82300 -75282 24 -1 -1 0.00 -- 19 35 70 0.30
07/14/2015 588.07 6954 -64 82300 -75346 26 -2 -2 0.00 0.00 19 36 78 0.32
07/15/2015 587.90 6887 -67 82300 -75413 28 -1 -1 0.00 0.00 19 37 70 0.32
07/16/2015 587.73 6821 -66 82300 -75479 30 1 1 0.00 0.00 19 38 62 0.32
07/17/2015 587.56 6755 -66 82300 -75545 27 -2 -2 0.00 0.00 18 40 69 0.33
07/18/2015 587.45 6712 -43 82300 -75588 24 5 5 0.44 0.00 20 37 79 0.24
07/19/2015 587.39 6689 -23 82300 -75611 10 2 2 0.05 0.44 22 35 70 0.29
07/20/2015 587.37 6682 -7 82300 -75618 4 3 3 0.03 0.05 23 35 51 0.22
07/21/2015 587.32 6662 -20 82300 -75638 8 2 2 0.05 0.03 23 37 83 0.32
07/22/2015 587.24 6632 -30 82300 -75668 9 -2 -2 0.00 0.05 23 36 82 0.32
07/23/2015 587.16 6601 -31 82300 -75699 8 -4 -4 0.00 0.00 19 35 77 0.32
07/24/2015 587.09 6575 -26 82300 -75725 8 -2 -2 0.00 0.00 18 35 74 0.31
07/25/2015 587.02 6548 -27 82300 -75752 7 -3 -3 0.00 0.00 17 37 74 0.32
07/26/2015 586.96 6525 -23 82300 -75775 7 -1 -1 0.00 0.00 19 36 66 0.31
07/27/2015 586.82 6473 -52 82300 -75827 22 -0 0 0.00 0.00 17 35 68 0.31
07/28/2015 586.65 6409 -64 82238 -75829 27 -2 -2 0.00 0.00 20 39 60 0.32
07/29/2015 586.47 6342 -67 82168 -75826 28 -1 -1 0.05 0.00 23 43 63 0.33
07/30/2015 586.29 6276 -66 82099 -75823 30 -1 -1 0.00 0.00 24 39 58 0.24
07/31/2015 586.11 6210 -66 82300 -76090 27 -2 -2 0.00 0.00 25 40 79 0.32
08/01/2015 585.96 6155 -55 82300 -76145 24 -0 0 0.00 0.00 22 39 63 0.32
08/02/2015 585.89 6130 -25 82300 -76170 9 0 0 0.00 0.00 20 38 72 0.32
08/03/2015 585.83 6108 -22 82300 -76192 7 -0 0 0.00 0.00 19 37 70 0.31
08/04/2015 -- -- -- -- -- -- -- -- -- 0.00 -- -- -- --

Later | Latest

Warning! This data is preliminary and subject to revision.

Show SCC Map | Plot SCC Data | 1 Month SCC Data | Real-Time SCC Data | SCC Info